Aeroporto :
LOGIN :

Iscrizione | Disclaimer

   EN    FR    IT 

 










Sommario :    VFR   VFR Marginale   IFR   IFR Intensivo   IFR Molto Intensivo
Visibilità : 
Base nubi : 
>= 8 km
>= 3000ft
5 / 8 km
1000 / 3000 ft
1500m / 5 km
500 / 1000 ft
800 / 1500m
200 / 500 ft
< 800m
< 200 ft
Simboli :   Temporali  Nebbia  Neve Forte  Precipitazioni Forti  Vento > 20 kt
SIGMETs :   Varie  Temporali  Ghiacco  Turbolenza  Onda orograficha  Ceneri Vulcaniche






- Altitudine del aeroporto : 597 ft
- Codice IATA : PDV


LBPD - Plovdiv

ULTIMO METAR :
  • 020500Z AUTO 30013KT 9999 NCD 16/09 Q1009 NOSIG

METARs OBSOLETI :
  • 020430Z AUTO 30009KT 9999 NCD 15/09 Q1009 NOSIG
  • 020400Z AUTO 29008KT 9999 NCD 14/08 Q1009 NOSIG
  • 020330Z AUTO 28011KT 9999 NCD 14/08 Q1010 NOSIG
  • 020300Z AUTO 28014KT 9999 BKN089 14/08 Q1010 NOSIG
  • 020230Z AUTO 27014KT 9999 BKN077 14/08 Q1010

TAF TAF LBPD
Valido dal 02 a 00 ore il 03 a 00 ore UTC


012300Z 0200/0224 27010KT 9999 SCT050 BKN070
PROB30
TEMPO 0206/0212 SHRA FEW030CB BKN050
TEMPO 0212/0216 4000 TSRA FEW012 SCT030CB BKN040



MetMap, La meteo Aeronautica in un colpo d'occhio ! - Copyright ORBIFLY Dicembre 2007 - Disclaimer

ORBIFLY MET'MAP TEAM :

Programmazione e sviluppo : Alexandra Zaïnal
Concezione : Baudouin d'Aumeries
Aiuto per la programmazione : Marc-Olivier Méhu
Supporto tecnico e logistico : Manuel Goepfert
Aiuto per la traduzione : Arnaldo La Scala

Contatto : metmap@orbifly.com




FONTI E CREDITI :

   NOAA